createdAt,value
2019-04-04T00:11:57.909Z,7.10
2019-04-04T00:14:56.653Z,7.10
2019-04-04T00:17:31.200Z,7.08
2019-04-04T00:20:17.511Z,7.11
2019-04-04T00:22:51.827Z,7.07
2019-04-04T00:25:26.142Z,7.05
2019-04-04T00:28:00.116Z,7.10
2019-04-04T00:30:34.600Z,7.19
2019-04-04T00:33:20.513Z,7.08
2019-04-04T00:36:07.154Z,6.96
2019-04-04T00:38:40.855Z,6.94
2019-04-04T00:41:28.798Z,6.92
2019-04-04T00:44:03.061Z,6.99
2019-04-04T00:46:37.351Z,7.09
2019-04-04T00:49:11.638Z,7.08
2019-04-04T00:51:45.576Z,6.92
2019-04-04T00:54:37.048Z,6.90
2019-04-04T00:57:10.463Z,6.86
2019-04-04T00:59:56.689Z,6.86
2019-04-04T01:02:30.954Z,6.84
2019-04-04T01:05:04.944Z,6.86
2019-04-04T01:07:50.819Z,6.96
2019-04-04T01:20:59.468Z,7.03
2019-04-04T01:23:33.556Z,6.98
2019-04-04T01:36:49.340Z,7.17
2019-04-04T01:39:23.417Z,7.16
2019-04-04T01:41:57.775Z,7.16
2019-04-04T01:44:31.002Z,7.22
2019-04-04T01:47:07.109Z,7.22
2019-04-04T01:49:41.467Z,7.26
2019-04-04T01:52:15.430Z,7.29
2019-04-04T01:55:18.946Z,7.29
2019-04-04T01:58:07.915Z,7.25
2019-04-04T02:00:44.013Z,7.24
2019-04-04T02:03:18.879Z,7.33
2019-04-04T02:05:52.445Z,7.05
2019-04-04T02:08:25.606Z,7.00
2019-04-04T02:10:59.960Z,7.05
2019-04-04T02:13:45.291Z,7.04
2019-04-04T02:19:38.181Z,7.05
2019-04-04T02:22:32.951Z,7.05
2019-04-04T02:25:27.529Z,7.09
2019-04-04T02:44:05.557Z,6.86
2019-04-04T02:46:44.266Z,6.92
2019-04-04T03:02:49.243Z,6.94
2019-04-04T03:05:23.446Z,6.87
2019-04-04T03:07:57.331Z,6.85
2019-04-04T03:21:23.468Z,6.71
2019-04-04T03:24:05.933Z,6.64
2019-04-04T03:26:55.239Z,6.61
2019-04-04T03:29:46.748Z,6.64
2019-04-04T03:32:20.794Z,6.55
2019-04-04T03:34:54.689Z,6.58
2019-04-04T03:58:44.741Z,6.86
2019-04-04T04:01:19.327Z,6.83
2019-04-04T04:27:47.110Z,6.89
2019-04-04T04:30:20.353Z,6.79
2019-04-04T04:32:57.124Z,6.79
2019-04-04T04:35:29.674Z,6.73
2019-04-04T04:38:14.784Z,6.78
2019-04-04T04:51:37.383Z,6.85
2019-04-04T05:12:53.195Z,6.92
2019-04-04T05:15:43.940Z,7.02
2019-04-04T05:18:32.513Z,6.96
2019-04-04T05:45:44.853Z,6.76
2019-04-04T06:00:15.225Z,6.84
2019-04-04T06:02:48.574Z,6.76
2019-04-04T06:05:22.903Z,6.79
2019-04-04T06:27:52.449Z,6.95
2019-04-04T06:34:49.062Z,7.05
2019-04-04T06:37:23.290Z,6.95
2019-04-04T06:39:58.992Z,6.74
2019-04-04T06:42:36.046Z,6.65
2019-04-04T06:45:09.480Z,6.71
2019-04-04T06:47:57.626Z,6.86
2019-04-04T06:50:31.443Z,6.88
2019-04-04T06:53:05.001Z,6.95
2019-04-04T06:55:40.229Z,7.14
2019-04-04T06:58:16.887Z,7.25
2019-04-04T07:01:39.223Z,7.34
2019-04-04T07:04:25.216Z,7.44
2019-04-04T07:07:13.149Z,6.93
2019-04-04T07:09:48.224Z,7.50
2019-04-04T07:12:40.408Z,7.44
2019-04-04T07:15:31.590Z,7.45
2019-04-04T07:18:05.585Z,7.40
2019-04-04T07:20:39.359Z,7.44
2019-04-04T07:23:14.426Z,7.54
2019-04-04T07:25:48.900Z,7.65
2019-04-04T07:28:40.954Z,7.62
2019-04-04T07:31:16.095Z,7.70
2019-04-04T07:33:50.450Z,7.74
2019-04-04T07:36:24.983Z,7.80
2019-04-04T07:39:00.345Z,7.82
2019-04-04T07:41:34.065Z,7.88
2019-04-04T07:44:12.324Z,7.84
2019-04-04T07:46:46.484Z,7.86
2019-04-04T07:49:21.129Z,7.93
2019-04-04T07:52:07.525Z,8.13
2019-04-04T07:54:41.645Z,8.06
2019-04-04T07:57:17.309Z,8.01
2019-04-04T07:59:55.849Z,8.03
2019-04-04T08:02:42.484Z,8.10
2019-04-04T08:05:16.010Z,8.09
2019-04-04T08:07:50.048Z,8.12
2019-04-04T08:10:24.865Z,8.09
2019-04-04T08:12:59.000Z,8.17
2019-04-04T08:15:35.931Z,8.36
2019-04-04T08:18:08.065Z,8.37
2019-04-04T08:20:41.323Z,8.46
2019-04-04T08:23:17.133Z,8.47
2019-04-04T11:19:43.346Z,9.36
2019-04-04T11:22:16.228Z,9.31
2019-04-04T11:24:50.351Z,9.37
2019-04-04T12:38:10.196Z,10.38
2019-04-04T12:40:44.339Z,10.56
2019-04-04T12:43:19.441Z,10.62
2019-04-04T12:45:53.070Z,10.61
2019-04-04T12:48:27.098Z,10.56
2019-04-04T12:51:13.938Z,10.65
2019-04-04T12:53:47.523Z,10.59
2019-04-04T12:56:22.040Z,10.49
2019-04-04T13:30:40.490Z,10.17
2019-04-04T13:33:14.880Z,10.13
2019-04-04T13:46:29.514Z,10.18
2019-04-04T13:49:21.715Z,10.17
2019-04-04T13:51:56.041Z,10.19
2019-04-04T13:54:30.241Z,10.17
2019-04-04T14:07:45.098Z,10.11
2019-04-04T14:10:19.034Z,10.04
2019-04-04T14:12:53.239Z,10.05
2019-04-04T14:15:27.541Z,10.00
2019-04-04T14:18:07.613Z,9.98
2019-04-04T14:31:18.039Z,10.23
2019-04-04T14:44:28.096Z,10.16
2019-04-04T14:47:02.605Z,10.17
2019-04-04T14:49:38.726Z,10.10
2019-04-04T14:52:30.817Z,10.27
2019-04-04T14:55:23.042Z,10.35
2019-04-04T14:57:57.032Z,10.45
2019-04-04T15:00:30.527Z,10.49
2019-04-04T15:03:04.877Z,10.48
2019-04-04T15:05:38.856Z,10.40
2019-04-04T15:08:13.034Z,10.35
2019-04-04T15:10:47.403Z,10.34
2019-04-04T15:13:41.571Z,10.37
2019-04-04T15:16:27.329Z,10.26
2019-04-04T15:19:01.966Z,10.17
2019-04-04T15:21:35.791Z,10.09
2019-04-04T15:24:09.996Z,10.07
2019-04-04T15:42:55.200Z,10.21
2019-04-04T16:56:11.366Z,9.73
2019-04-04T17:09:25.613Z,9.41
2019-04-04T17:12:00.111Z,9.33
2019-04-04T17:14:33.941Z,9.24
2019-04-04T17:17:15.057Z,9.29
2019-04-04T17:19:54.057Z,9.19
2019-04-04T17:22:29.357Z,9.19
2019-04-04T17:25:03.718Z,9.21
2019-04-04T17:27:49.303Z,9.21
2019-04-04T17:30:23.186Z,9.16
2019-04-04T17:32:57.109Z,9.13
2019-04-04T17:35:31.749Z,9.15
2019-04-04T17:38:15.022Z,9.21
2019-04-04T17:40:49.269Z,9.07
2019-04-04T17:43:24.299Z,8.99
2019-04-04T17:45:58.829Z,8.98
2019-04-04T17:48:43.823Z,9.07
2019-04-04T17:51:18.113Z,9.04
2019-04-04T17:54:14.424Z,9.02
2019-04-04T17:56:50.389Z,8.93
2019-04-04T17:59:24.455Z,8.92
2019-04-04T18:02:15.546Z,8.96
2019-04-04T18:04:49.588Z,8.86
2019-04-04T18:07:49.185Z,8.96
2019-04-04T18:10:28.787Z,8.91
2019-04-04T18:13:02.403Z,8.90
2019-04-04T18:15:38.006Z,8.88
2019-04-04T18:18:12.138Z,8.90
2019-04-04T18:20:45.853Z,8.82
2019-04-04T18:23:37.635Z,8.86
2019-04-04T18:26:11.292Z,8.79
2019-04-04T18:29:03.057Z,8.70
2019-04-04T18:31:37.242Z,8.60
2019-04-04T18:34:11.055Z,8.49
2019-04-04T18:36:56.583Z,8.55
2019-04-04T18:39:29.858Z,8.43
2019-04-04T18:42:21.596Z,8.41
2019-04-04T18:45:08.754Z,8.44
2019-04-04T18:47:53.555Z,8.44
2019-04-04T18:50:27.589Z,8.46
2019-04-04T19:03:39.658Z,8.48
2019-04-04T19:17:28.418Z,8.51
2019-04-04T19:20:03.641Z,8.47
2019-04-04T19:23:11.517Z,8.43
2019-04-04T19:29:37.328Z,8.48
2019-04-04T19:32:11.280Z,8.37
2019-04-04T19:34:46.016Z,8.37
2019-04-04T19:38:00.115Z,8.30
2019-04-04T19:40:28.866Z,8.36
2019-04-04T19:43:03.248Z,8.37
2019-04-04T19:45:37.992Z,8.30
2019-04-04T19:48:32.518Z,8.31
2019-04-04T19:51:08.074Z,8.23
2019-04-04T19:53:42.401Z,8.35
2019-04-04T19:56:18.224Z,8.42
2019-04-04T19:58:52.516Z,8.33
2019-04-04T20:01:49.199Z,8.40
2019-04-04T20:04:35.224Z,8.48
2019-04-04T20:07:19.264Z,8.39
2019-04-04T20:09:59.073Z,8.27
2019-04-04T20:12:44.375Z,8.24
2019-04-04T20:15:23.252Z,8.25
2019-04-04T20:18:05.180Z,8.05
2019-04-04T20:20:56.958Z,7.93
2019-04-04T20:23:33.253Z,8.06
2019-04-04T20:26:27.203Z,8.00
2019-04-04T20:29:03.550Z,7.99
2019-04-04T20:31:56.404Z,8.07
2019-04-04T20:34:33.473Z,8.09
2019-04-04T20:37:13.159Z,7.99
2019-04-04T20:40:18.543Z,8.01
2019-04-04T20:42:55.535Z,8.13
2019-04-04T20:45:47.830Z,8.20
2019-04-04T20:48:24.762Z,8.09
2019-04-04T20:51:52.553Z,8.04
2019-04-04T20:54:35.102Z,7.96
2019-04-04T20:57:13.458Z,7.95
2019-04-04T20:59:53.847Z,7.98
2019-04-04T21:02:29.382Z,8.04
2019-04-04T21:05:04.719Z,8.03
2019-04-04T21:07:43.277Z,8.07
2019-04-04T21:10:36.495Z,8.19
2019-04-04T21:13:33.944Z,8.11
2019-04-04T21:22:27.467Z,7.91
2019-04-04T21:24:55.126Z,8.00
2019-04-04T21:27:30.623Z,7.95
2019-04-04T21:30:06.178Z,7.89
2019-04-04T21:32:42.044Z,7.91
2019-04-04T21:35:24.787Z,8.00
2019-04-04T21:38:49.434Z,8.03
2019-04-04T21:41:25.845Z,7.88
2019-04-04T21:44:19.017Z,7.90
2019-04-04T21:46:53.001Z,8.00
2019-04-04T21:49:54.450Z,7.98
2019-04-04T21:52:59.632Z,8.01
2019-04-04T21:56:07.731Z,8.09
2019-04-04T21:58:50.555Z,8.03
2019-04-04T22:01:33.944Z,8.04
2019-04-04T22:21:52.278Z,7.89
2019-04-04T22:24:28.528Z,7.92
2019-04-04T22:27:03.877Z,7.93
2019-04-04T22:29:39.362Z,7.86
2019-04-04T22:32:13.532Z,7.82
2019-04-04T22:35:24.149Z,7.71
2019-04-04T22:37:59.234Z,7.75
2019-04-04T22:40:34.935Z,7.72
2019-04-04T22:43:30.452Z,7.73
2019-04-04T22:50:01.640Z,7.61
2019-04-04T22:52:41.144Z,7.70
2019-04-04T22:55:17.174Z,7.74
2019-04-04T22:57:51.645Z,7.74
2019-04-04T23:00:27.202Z,7.75
2019-04-04T23:03:04.009Z,7.72
2019-04-04T23:05:39.642Z,7.70
2019-04-04T23:08:15.420Z,7.70
2019-04-04T23:12:04.137Z,7.74
2019-04-04T23:14:48.257Z,7.77
2019-04-04T23:17:25.034Z,7.73
2019-04-04T23:19:59.980Z,7.72
2019-04-04T23:22:37.778Z,7.62
2019-04-04T23:25:18.526Z,7.61
2019-04-04T23:27:56.527Z,7.70
2019-04-04T23:30:31.726Z,7.80
2019-04-04T23:33:22.622Z,7.86
2019-04-04T23:37:10.967Z,7.71
2019-04-04T23:40:00.642Z,7.57
2019-04-04T23:42:45.681Z,7.61
2019-04-04T23:45:23.833Z,7.67
2019-04-04T23:47:59.957Z,7.71
2019-04-04T23:50:34.217Z,7.59
2019-04-04T23:53:16.864Z,7.65
2019-04-04T23:55:53.538Z,7.70
2019-04-04T23:58:32.866Z,7.76
